createdAt,value
2022-12-11T00:00:05.000Z,11.70
2022-12-11T00:02:31.532Z,10.73
2022-12-11T00:04:57.953Z,11.20
2022-12-11T00:07:24.409Z,10.45
2022-12-11T00:09:50.821Z,11.07
2022-12-11T00:12:17.170Z,13.90
2022-12-11T00:14:43.704Z,11.60
2022-12-11T00:17:10.241Z,11.17
2022-12-11T00:19:36.612Z,7.82
2022-12-11T00:22:03.238Z,11.45
2022-12-11T00:24:29.639Z,12.30
2022-12-11T00:26:56.230Z,12.10
2022-12-11T00:29:22.601Z,10.37
2022-12-11T00:31:49.146Z,12.90
2022-12-11T00:34:15.643Z,11.32
2022-12-11T00:36:42.214Z,11.45
2022-12-11T00:39:08.659Z,10.60
2022-12-11T00:41:35.113Z,11.03
2022-12-11T00:44:01.823Z,9.55
2022-12-11T00:46:28.283Z,11.02
2022-12-11T00:48:54.689Z,11.98
2022-12-11T00:51:21.202Z,13.68
2022-12-11T00:53:47.795Z,13.27
2022-12-11T00:56:16.014Z,11.40
2022-12-11T00:58:42.648Z,14.57
2022-12-11T01:01:09.967Z,12.48
2022-12-11T01:03:37.249Z,12.60
2022-12-11T01:06:03.957Z,11.13
2022-12-11T01:08:35.352Z,8.68
2022-12-11T01:11:09.627Z,9.52
2022-12-11T01:13:36.755Z,10.95
2022-12-11T01:16:13.278Z,13.05
2022-12-11T01:18:40.228Z,11.00
2022-12-11T01:21:10.345Z,11.43
2022-12-11T01:23:37.164Z,8.00
2022-12-11T01:26:08.153Z,8.02
2022-12-11T01:28:34.647Z,13.07
2022-12-11T01:31:01.103Z,10.63
2022-12-11T01:33:27.792Z,9.57
2022-12-11T01:35:54.622Z,10.88
2022-12-11T01:38:21.037Z,11.57
2022-12-11T01:40:53.194Z,9.35
2022-12-11T01:43:19.687Z,8.33
2022-12-11T01:45:47.485Z,11.27
2022-12-11T01:48:21.377Z,11.52
2022-12-11T01:50:49.976Z,11.18
2022-12-11T01:53:19.012Z,11.68
2022-12-11T01:55:46.164Z,10.47
2022-12-11T01:58:12.849Z,10.82
2022-12-11T02:00:39.220Z,9.48
2022-12-11T02:03:05.674Z,10.82
2022-12-11T02:05:32.145Z,10.50
2022-12-11T02:07:59.582Z,11.52
2022-12-11T02:10:30.960Z,10.77
2022-12-11T02:12:59.480Z,10.60
2022-12-11T02:15:37.263Z,10.07
2022-12-11T02:18:11.906Z,10.80
2022-12-11T02:20:42.054Z,8.67
2022-12-11T02:23:11.319Z,9.05
2022-12-11T02:25:37.717Z,9.93
2022-12-11T02:28:22.767Z,11.93
2022-12-11T02:30:55.357Z,9.88
2022-12-11T02:33:23.870Z,11.47
2022-12-11T02:35:50.625Z,7.30
2022-12-11T02:38:20.129Z,11.57
2022-12-11T02:40:48.968Z,7.00
2022-12-11T02:43:16.287Z,10.95
2022-12-11T02:45:44.113Z,7.73
2022-12-11T02:48:11.610Z,9.48
2022-12-11T02:50:39.351Z,9.85
2022-12-11T02:53:07.016Z,7.90
2022-12-11T02:55:36.660Z,10.45
2022-12-11T02:58:08.226Z,11.43
2022-12-11T03:00:34.754Z,9.18
2022-12-11T03:03:01.634Z,9.90
2022-12-11T03:05:28.789Z,7.60
2022-12-11T03:07:55.422Z,9.18
2022-12-11T03:10:22.013Z,8.53
2022-12-11T03:12:53.882Z,10.38
2022-12-11T03:15:21.787Z,6.82
2022-12-11T03:18:09.992Z,10.27
2022-12-11T03:20:39.380Z,8.05
2022-12-11T03:23:14.914Z,8.50
2022-12-11T03:25:54.688Z,8.13
2022-12-11T03:28:25.765Z,9.82
2022-12-11T03:30:53.558Z,7.55
2022-12-11T03:33:23.607Z,10.60
2022-12-11T03:35:53.461Z,6.13
2022-12-11T03:38:21.974Z,10.52
2022-12-11T03:40:50.238Z,9.88
2022-12-11T03:43:17.227Z,9.05
2022-12-11T03:45:44.888Z,9.48
2022-12-11T03:48:12.157Z,8.77
2022-12-11T03:50:39.562Z,7.68
2022-12-11T03:53:06.400Z,8.73
2022-12-11T03:55:34.033Z,8.40
2022-12-11T03:58:00.490Z,9.35
2022-12-11T04:00:26.913Z,8.90
2022-12-11T04:03:28.494Z,9.13
2022-12-11T04:05:55.416Z,8.88
2022-12-11T04:08:22.471Z,6.93
2022-12-11T04:10:49.181Z,8.73
2022-12-11T04:13:15.585Z,10.17
2022-12-11T04:15:42.053Z,12.23
2022-12-11T04:18:28.104Z,9.25
2022-12-11T04:21:13.892Z,10.55
2022-12-11T04:23:58.959Z,10.23
2022-12-11T04:26:25.699Z,7.47
2022-12-11T04:28:52.153Z,9.52
2022-12-11T04:31:20.307Z,10.13
2022-12-11T04:33:46.993Z,11.15
2022-12-11T04:36:13.730Z,6.13
2022-12-11T04:38:40.592Z,8.70
2022-12-11T04:41:08.148Z,8.65
2022-12-11T04:43:34.890Z,10.30
2022-12-11T04:46:02.464Z,10.02
2022-12-11T04:48:28.979Z,7.95
2022-12-11T04:50:55.438Z,9.70
2022-12-11T04:53:22.177Z,9.63
2022-12-11T04:55:48.591Z,12.10
2022-12-11T04:58:14.981Z,10.50
2022-12-11T05:00:41.962Z,7.60
2022-12-11T05:03:08.810Z,10.27
2022-12-11T05:05:35.253Z,12.18
2022-12-11T05:08:01.674Z,11.43
2022-12-11T05:10:28.178Z,11.50
2022-12-11T05:12:54.553Z,10.90
2022-12-11T05:15:20.919Z,9.20
2022-12-11T05:17:47.319Z,12.93
2022-12-11T05:20:13.769Z,9.32
2022-12-11T05:22:40.146Z,11.73
2022-12-11T05:25:06.818Z,7.95
2022-12-11T05:27:33.515Z,10.63
2022-12-11T05:29:59.921Z,11.73
2022-12-11T05:32:26.585Z,12.13
2022-12-11T05:34:52.932Z,12.50
2022-12-11T05:37:19.357Z,11.95
2022-12-11T05:39:45.745Z,12.57
2022-12-11T05:42:12.099Z,12.70
2022-12-11T05:44:38.487Z,10.02
2022-12-11T05:47:04.856Z,12.05
2022-12-11T05:49:31.351Z,14.32
2022-12-11T05:51:57.948Z,15.73
2022-12-11T05:54:24.463Z,14.00
2022-12-11T05:56:51.465Z,11.77
2022-12-11T05:59:19.665Z,11.45
2022-12-11T06:01:46.257Z,15.95
2022-12-11T06:04:13.323Z,11.63
2022-12-11T06:06:40.494Z,13.23
2022-12-11T06:09:07.509Z,11.93
2022-12-11T06:11:34.369Z,15.48
2022-12-11T06:14:01.552Z,10.85
2022-12-11T06:16:28.019Z,12.40
2022-12-11T06:18:57.979Z,11.38
2022-12-11T06:21:29.475Z,13.25
2022-12-11T06:23:57.252Z,12.52
2022-12-11T06:26:24.097Z,13.30
2022-12-11T06:28:50.699Z,12.17
2022-12-11T06:31:17.634Z,14.95
2022-12-11T06:33:44.161Z,12.50
2022-12-11T06:36:11.892Z,9.20
2022-12-11T06:38:38.527Z,11.98
2022-12-11T06:41:05.501Z,13.90
2022-12-11T06:43:32.343Z,10.75
2022-12-11T06:46:03.875Z,11.25
2022-12-11T06:48:30.822Z,11.48
2022-12-11T06:50:57.931Z,11.90
2022-12-11T06:53:24.390Z,12.87
2022-12-11T06:55:50.851Z,9.20
2022-12-11T06:58:17.233Z,10.70
2022-12-11T07:00:43.807Z,14.68
2022-12-11T07:03:10.389Z,11.70
2022-12-11T07:05:36.767Z,12.73
2022-12-11T07:08:03.163Z,11.70
2022-12-11T07:10:29.722Z,13.73
2022-12-11T07:12:56.093Z,13.40
2022-12-11T07:15:22.518Z,11.90
2022-12-11T07:17:48.934Z,15.17
2022-12-11T07:20:15.334Z,13.00
2022-12-11T07:22:46.194Z,14.38
2022-12-11T07:25:13.485Z,13.75
2022-12-11T07:27:40.006Z,13.73
2022-12-11T07:30:06.684Z,12.87
2022-12-11T07:32:33.166Z,8.82
2022-12-11T07:34:59.692Z,11.52
2022-12-11T07:37:26.104Z,13.50
2022-12-11T07:39:52.454Z,11.13
2022-12-11T07:42:18.888Z,15.37
2022-12-11T07:44:45.265Z,15.23
2022-12-11T07:47:11.736Z,17.10
2022-12-11T07:49:38.379Z,13.45
2022-12-11T07:52:04.799Z,15.88
2022-12-11T07:54:31.172Z,12.37
2022-12-11T07:56:57.553Z,14.02
2022-12-11T07:59:24.111Z,12.07
2022-12-11T08:01:50.526Z,12.88
2022-12-11T08:04:16.962Z,14.05
2022-12-11T08:06:43.422Z,15.33
2022-12-11T08:09:14.689Z,13.15
2022-12-11T08:11:45.416Z,16.00
2022-12-11T08:14:11.794Z,17.95
2022-12-11T08:16:40.244Z,16.77
2022-12-11T08:19:06.745Z,14.90
2022-12-11T08:21:33.136Z,17.02
2022-12-11T08:23:59.529Z,17.10
2022-12-11T08:26:27.027Z,14.52
2022-12-11T08:28:53.675Z,18.17
2022-12-11T08:31:20.854Z,14.93
2022-12-11T08:33:48.217Z,14.00
2022-12-11T08:36:15.940Z,11.25
2022-12-11T08:38:42.689Z,16.10
2022-12-11T08:41:09.342Z,16.65
2022-12-11T08:43:35.755Z,15.90
2022-12-11T08:46:02.357Z,16.08
2022-12-11T08:48:28.948Z,15.80
2022-12-11T08:50:55.480Z,13.95
2022-12-11T08:53:21.926Z,16.10
2022-12-11T08:55:48.297Z,14.30
2022-12-11T08:58:14.702Z,14.30
2022-12-11T09:00:41.461Z,13.73
2022-12-11T09:03:12.779Z,12.38
2022-12-11T09:05:40.127Z,14.45
2022-12-11T09:08:07.252Z,15.97
2022-12-11T09:10:33.858Z,13.25
2022-12-11T09:13:00.261Z,11.85
2022-12-11T09:15:26.639Z,15.75
2022-12-11T09:17:53.048Z,12.65
2022-12-11T09:20:19.764Z,13.40
2022-12-11T09:22:46.245Z,13.25
2022-12-11T09:25:12.907Z,14.88
2022-12-11T09:27:39.631Z,16.00
2022-12-11T09:30:06.398Z,11.38
2022-12-11T09:32:32.786Z,14.30
2022-12-11T09:34:59.150Z,13.38
2022-12-11T09:37:25.550Z,13.82
2022-12-11T09:39:51.937Z,11.40
2022-12-11T09:42:21.137Z,16.60
2022-12-11T09:44:55.447Z,15.70
2022-12-11T09:47:31.739Z,16.75
2022-12-11T09:50:10.553Z,17.45
2022-12-11T09:52:55.911Z,15.35
2022-12-11T09:55:24.392Z,17.45
2022-12-11T09:57:50.758Z,15.03
2022-12-11T10:00:28.824Z,12.35
2022-12-11T10:03:01.029Z,17.10
2022-12-11T10:05:27.370Z,14.35
2022-12-11T10:08:02.913Z,15.00
2022-12-11T10:10:35.419Z,15.20
2022-12-11T10:13:10.759Z,11.07
2022-12-11T10:15:41.000Z,13.07
2022-12-11T10:18:11.682Z,15.82
2022-12-11T10:20:40.369Z,15.63
2022-12-11T10:23:08.022Z,12.10
2022-12-11T10:25:36.137Z,17.42
2022-12-11T10:28:10.536Z,16.55
2022-12-11T10:30:37.996Z,11.55
2022-12-11T10:33:04.377Z,14.32
2022-12-11T10:35:33.850Z,16.17
2022-12-11T10:38:12.568Z,13.25
2022-12-11T10:40:42.896Z,14.57
2022-12-11T10:43:09.282Z,15.35
2022-12-11T10:45:36.127Z,13.90
2022-12-11T10:48:04.223Z,10.83
2022-12-11T10:50:30.606Z,11.38
2022-12-11T10:52:57.441Z,15.13
2022-12-11T10:55:49.961Z,12.80
2022-12-11T10:58:18.948Z,11.93
2022-12-11T11:00:45.341Z,12.77
2022-12-11T11:03:38.140Z,15.20
2022-12-11T11:06:15.334Z,16.00
2022-12-11T11:08:44.427Z,20.52
2022-12-11T11:11:21.238Z,19.42
2022-12-11T11:13:47.729Z,19.03
2022-12-11T11:16:16.456Z,18.73
2022-12-11T11:18:49.069Z,16.42
2022-12-11T11:21:19.041Z,16.45
2022-12-11T11:23:50.517Z,12.50
2022-12-11T11:26:20.331Z,16.87
2022-12-11T11:28:49.998Z,11.73
2022-12-11T11:31:17.622Z,17.85
2022-12-11T11:33:58.182Z,11.90
2022-12-11T11:36:25.907Z,15.10
2022-12-11T11:39:12.522Z,14.27
2022-12-11T11:41:44.106Z,16.45
2022-12-11T11:44:13.323Z,17.90
2022-12-11T11:46:46.228Z,14.27
2022-12-11T11:49:12.594Z,14.70
2022-12-11T11:51:41.572Z,12.17
2022-12-11T11:54:23.054Z,14.27
2022-12-11T11:56:51.745Z,12.57
2022-12-11T11:59:31.150Z,14.98
2022-12-11T12:01:58.089Z,14.45
2022-12-11T12:04:25.568Z,15.77
2022-12-11T12:07:10.718Z,15.32
2022-12-11T12:09:53.010Z,14.88
2022-12-11T12:12:34.830Z,16.35
2022-12-11T12:15:20.219Z,13.85
2022-12-11T12:17:56.183Z,14.07
2022-12-11T12:20:28.525Z,14.63
2022-12-11T12:23:13.720Z,17.08
2022-12-11T12:25:40.076Z,15.30
2022-12-11T12:28:20.854Z,16.52
2022-12-11T12:30:53.010Z,14.40
2022-12-11T12:33:25.333Z,12.13
2022-12-11T12:36:05.083Z,14.68
2022-12-11T12:38:53.981Z,11.93
2022-12-11T12:41:20.359Z,11.40
2022-12-11T12:43:50.940Z,17.20
2022-12-11T12:46:38.059Z,16.08
2022-12-11T12:49:05.471Z,11.50
2022-12-11T12:51:32.057Z,14.35
2022-12-11T12:54:00.510Z,12.48
2022-12-11T12:56:29.210Z,15.60
2022-12-11T12:58:55.677Z,17.60
2022-12-11T13:01:24.376Z,16.05
2022-12-11T13:03:54.293Z,16.90
2022-12-11T13:06:31.904Z,17.40
2022-12-11T13:08:58.625Z,13.60
2022-12-11T13:11:32.316Z,10.75
2022-12-11T13:14:03.786Z,10.07
2022-12-11T13:16:39.310Z,10.30
2022-12-11T13:19:18.188Z,13.43
2022-12-11T13:21:54.604Z,12.27
2022-12-11T13:24:20.982Z,12.55
2022-12-11T13:26:50.709Z,12.35
2022-12-11T13:29:32.474Z,13.20
2022-12-11T13:32:00.412Z,14.63
2022-12-11T13:34:28.389Z,14.43
2022-12-11T13:36:54.940Z,16.42
2022-12-11T13:39:25.601Z,18.15
2022-12-11T13:41:53.726Z,18.63
2022-12-11T13:44:27.359Z,17.92
2022-12-11T13:46:55.291Z,16.67
2022-12-11T13:49:26.465Z,13.05
2022-12-11T13:51:54.285Z,13.38
2022-12-11T13:54:20.789Z,12.95
2022-12-11T13:56:53.953Z,12.80
2022-12-11T13:59:24.115Z,11.73
2022-12-11T14:01:50.783Z,9.43
2022-12-11T14:04:19.214Z,13.18
2022-12-11T14:06:45.623Z,11.07
2022-12-11T14:09:15.770Z,12.70
2022-12-11T14:11:42.628Z,13.10
2022-12-11T14:14:17.866Z,12.48
2022-12-11T14:16:46.658Z,10.02
2022-12-11T14:19:15.227Z,14.10
2022-12-11T14:21:41.603Z,10.93
2022-12-11T14:24:12.438Z,12.73
2022-12-11T14:26:38.840Z,12.35
2022-12-11T14:29:06.192Z,9.73
2022-12-11T14:31:40.991Z,11.55
2022-12-11T14:34:12.614Z,12.55
2022-12-11T14:36:39.440Z,12.40
2022-12-11T14:39:10.682Z,13.18
2022-12-11T14:41:42.920Z,11.18
2022-12-11T14:44:14.608Z,12.57
2022-12-11T14:46:48.900Z,15.73
2022-12-11T14:49:18.062Z,14.17
2022-12-11T14:51:44.638Z,15.27
2022-12-11T14:54:20.252Z,14.02
2022-12-11T14:56:47.324Z,15.23
2022-12-11T14:59:19.874Z,15.18
2022-12-11T15:01:56.891Z,14.93
2022-12-11T15:04:26.880Z,13.50
2022-12-11T15:06:53.267Z,14.75
2022-12-11T15:09:28.966Z,10.98
2022-12-11T15:11:57.040Z,14.50
2022-12-11T15:14:24.336Z,13.43
2022-12-11T15:16:51.940Z,10.75
2022-12-11T15:19:23.033Z,13.98
2022-12-11T15:21:49.620Z,14.57
2022-12-11T15:24:28.059Z,15.70
2022-12-11T15:26:57.385Z,14.37
2022-12-11T15:29:36.827Z,9.90
2022-12-11T15:32:09.217Z,15.40
2022-12-11T15:34:43.422Z,16.27
2022-12-11T15:37:19.126Z,15.70
2022-12-11T15:39:45.537Z,16.73
2022-12-11T15:42:14.928Z,17.45
2022-12-11T15:44:41.877Z,14.30
2022-12-11T15:47:12.275Z,15.57
2022-12-11T15:49:38.669Z,13.10
2022-12-11T15:52:05.082Z,17.23
2022-12-11T15:54:31.508Z,15.20
2022-12-11T15:56:59.386Z,11.77
2022-12-11T15:59:25.780Z,12.63
2022-12-11T16:01:52.300Z,15.38
2022-12-11T16:04:18.745Z,15.95
2022-12-11T16:06:46.428Z,13.50
2022-12-11T16:09:12.805Z,16.10
2022-12-11T16:11:39.236Z,13.30
2022-12-11T16:14:05.686Z,15.02
2022-12-11T16:16:32.115Z,20.47
2022-12-11T16:18:58.473Z,14.85
2022-12-11T16:21:24.944Z,18.30
2022-12-11T16:23:51.317Z,14.35
2022-12-11T16:26:17.721Z,14.38
2022-12-11T16:28:44.142Z,16.67
2022-12-11T16:31:13.333Z,15.75
2022-12-11T16:33:39.894Z,17.48
2022-12-11T16:36:16.860Z,17.20
2022-12-11T16:38:52.923Z,16.05
2022-12-11T16:41:20.080Z,17.73
2022-12-11T16:43:46.489Z,12.38
2022-12-11T16:46:12.938Z,14.20
2022-12-11T16:48:39.446Z,14.02
2022-12-11T16:51:06.041Z,14.38
2022-12-11T16:53:32.443Z,15.07
2022-12-11T16:55:58.879Z,16.45
2022-12-11T16:58:25.252Z,16.80
2022-12-11T17:00:51.625Z,17.50
2022-12-11T17:03:19.181Z,16.15
2022-12-11T17:05:45.569Z,16.93
2022-12-11T17:08:12.033Z,16.55
2022-12-11T17:10:39.618Z,13.75
2022-12-11T17:13:06.022Z,16.02
2022-12-11T17:15:32.510Z,13.43
2022-12-11T17:17:58.959Z,17.60
2022-12-11T17:20:25.594Z,14.57
2022-12-11T17:22:52.002Z,16.05
2022-12-11T17:25:22.302Z,15.75
2022-12-11T17:27:49.108Z,14.52
2022-12-11T17:30:15.588Z,16.13
2022-12-11T17:32:42.233Z,14.57
2022-12-11T17:35:08.930Z,15.57
2022-12-11T17:37:35.551Z,15.30
2022-12-11T17:40:01.954Z,15.05
2022-12-11T17:42:28.624Z,20.35
2022-12-11T17:44:54.963Z,21.45
2022-12-11T17:47:21.347Z,21.55
2022-12-11T17:49:47.745Z,16.73
2022-12-11T17:52:14.185Z,16.40
2022-12-11T17:54:40.550Z,16.70
2022-12-11T17:57:06.972Z,16.95
2022-12-11T17:59:33.458Z,19.38
2022-12-11T18:01:59.886Z,18.85
2022-12-11T18:04:26.359Z,18.35
2022-12-11T18:06:52.745Z,17.50
2022-12-11T18:09:19.117Z,18.00
2022-12-11T18:11:45.529Z,17.35
2022-12-11T18:14:16.904Z,16.60
2022-12-11T18:16:43.896Z,17.67
2022-12-11T18:19:10.346Z,16.13
2022-12-11T18:21:40.685Z,15.40
2022-12-11T18:24:07.441Z,16.52
2022-12-11T18:26:33.809Z,14.48
2022-12-11T18:29:00.363Z,12.65
2022-12-11T18:31:26.762Z,13.83
2022-12-11T18:33:53.718Z,14.02
2022-12-11T18:36:20.700Z,11.95
2022-12-11T18:38:48.095Z,13.40
2022-12-11T18:41:15.047Z,13.38
2022-12-11T18:43:41.872Z,13.13
2022-12-11T18:46:09.205Z,12.65
2022-12-11T18:48:35.722Z,14.07
2022-12-11T18:51:05.303Z,15.18
2022-12-11T18:53:31.696Z,14.85
2022-12-11T18:56:00.528Z,15.07
2022-12-11T18:58:29.084Z,12.85
2022-12-11T19:00:55.545Z,14.25
2022-12-11T19:03:21.997Z,14.32
2022-12-11T19:05:48.403Z,12.15
2022-12-11T19:08:16.351Z,12.47
2022-12-11T19:10:46.758Z,11.60
2022-12-11T19:13:13.815Z,14.10
2022-12-11T19:15:43.825Z,11.43
2022-12-11T19:18:10.606Z,9.20
2022-12-11T19:21:04.654Z,11.05
2022-12-11T19:23:25.333Z,8.87
2022-12-11T19:25:51.969Z,11.23
2022-12-11T19:28:18.536Z,8.98
2022-12-11T19:30:48.912Z,9.18
2022-12-11T19:33:16.079Z,6.72
2022-12-11T19:35:42.657Z,9.97
2022-12-11T19:38:09.500Z,10.20
2022-12-11T19:40:39.913Z,8.48
2022-12-11T19:43:06.378Z,9.48
2022-12-11T19:45:32.763Z,10.45
2022-12-11T19:47:59.143Z,8.03
2022-12-11T19:50:25.583Z,5.32
2022-12-11T19:52:51.976Z,9.30
2022-12-11T19:55:19.750Z,6.53
2022-12-11T19:57:46.133Z,9.85
2022-12-11T20:00:12.746Z,10.00
2022-12-11T20:02:39.644Z,10.95
2022-12-11T20:05:06.184Z,12.43
2022-12-11T20:07:32.662Z,12.05
2022-12-11T20:10:00.402Z,12.32
2022-12-11T20:12:27.058Z,10.93
2022-12-11T20:14:53.551Z,10.57
2022-12-11T20:17:20.007Z,10.23
2022-12-11T20:19:46.431Z,9.43
2022-12-11T20:22:14.848Z,11.32
2022-12-11T20:24:41.338Z,10.20
2022-12-11T20:27:08.868Z,8.98
2022-12-11T20:29:35.360Z,9.95
2022-12-11T20:32:01.761Z,8.50
2022-12-11T20:34:28.200Z,8.60
2022-12-11T20:36:55.661Z,10.73
2022-12-11T20:39:22.225Z,9.85
2022-12-11T20:41:48.584Z,7.80
2022-12-11T20:44:16.130Z,8.10
2022-12-11T20:46:42.543Z,9.23
2022-12-11T20:49:12.930Z,7.27
2022-12-11T20:51:39.636Z,6.70
2022-12-11T20:54:06.066Z,9.02
2022-12-11T20:56:32.601Z,7.75
2022-12-11T20:58:59.355Z,7.72
2022-12-11T21:01:26.750Z,6.00
2022-12-11T21:03:53.615Z,8.02
2022-12-11T21:06:25.845Z,7.13
2022-12-11T21:08:53.105Z,6.75
2022-12-11T21:11:19.551Z,8.38
2022-12-11T21:13:45.966Z,7.77
2022-12-11T21:16:12.527Z,7.85
2022-12-11T21:18:39.851Z,7.55
2022-12-11T21:21:06.644Z,8.98
2022-12-11T21:23:33.351Z,9.73
2022-12-11T21:26:00.661Z,9.40
2022-12-11T21:28:30.595Z,8.25
2022-12-11T21:31:05.158Z,8.65
2022-12-11T21:33:31.638Z,8.63
2022-12-11T21:35:58.910Z,11.35
2022-12-11T21:38:25.548Z,8.90
2022-12-11T21:40:52.390Z,10.10
2022-12-11T21:43:19.036Z,10.18
2022-12-11T21:46:01.162Z,8.32
2022-12-11T21:48:28.578Z,7.90
2022-12-11T21:50:54.953Z,6.78
2022-12-11T21:53:21.361Z,7.68
2022-12-11T21:55:47.857Z,8.27
2022-12-11T21:58:14.292Z,7.63
2022-12-11T22:00:40.807Z,5.53
2022-12-11T22:03:07.401Z,6.90
2022-12-11T22:05:33.802Z,7.57
2022-12-11T22:08:00.235Z,6.95
2022-12-11T22:10:28.140Z,8.88
2022-12-11T22:12:54.530Z,8.23
2022-12-11T22:15:21.032Z,9.13
2022-12-11T22:17:47.382Z,8.80
2022-12-11T22:20:13.771Z,9.82
2022-12-11T22:22:40.162Z,8.38
2022-12-11T22:25:07.891Z,8.90
2022-12-11T22:27:34.633Z,9.05
2022-12-11T22:30:01.085Z,9.70
2022-12-11T22:32:27.782Z,9.07
2022-12-11T22:34:56.293Z,10.10
2022-12-11T22:37:22.757Z,10.73
2022-12-11T22:39:49.182Z,9.88
2022-12-11T22:42:15.647Z,10.07
2022-12-11T22:44:42.035Z,9.77
2022-12-11T22:47:08.453Z,9.02
2022-12-11T22:49:35.783Z,10.13
2022-12-11T22:52:02.208Z,10.27
2022-12-11T22:54:28.604Z,9.82
2022-12-11T22:56:54.983Z,9.98
2022-12-11T22:59:21.420Z,10.98
2022-12-11T23:01:47.794Z,10.17
2022-12-11T23:04:14.159Z,10.70
2022-12-11T23:06:40.621Z,11.30
2022-12-11T23:09:07.271Z,11.27
2022-12-11T23:11:36.301Z,11.15
2022-12-11T23:14:03.913Z,10.77
2022-12-11T23:16:30.422Z,12.90
2022-12-11T23:18:57.415Z,12.20
2022-12-11T23:21:24.373Z,12.55
2022-12-11T23:23:50.901Z,11.60
2022-12-11T23:26:18.831Z,13.00
2022-12-11T23:28:45.965Z,13.18
2022-12-11T23:31:12.527Z,11.20
2022-12-11T23:33:38.997Z,12.80
2022-12-11T23:36:05.750Z,12.45
2022-12-11T23:38:32.462Z,12.93
2022-12-11T23:41:00.260Z,12.80
2022-12-11T23:43:26.691Z,12.85
2022-12-11T23:45:53.375Z,13.93
2022-12-11T23:48:19.761Z,12.73
2022-12-11T23:50:46.280Z,12.70
2022-12-11T23:53:12.842Z,12.55
2022-12-11T23:55:40.355Z,13.15
2022-12-11T23:58:06.843Z,11.40
